createdAt,value
2023-04-16T00:01:08.302Z,1.55
2023-04-16T00:06:12.800Z,1.60
2023-04-16T00:11:15.678Z,1.59
2023-04-16T00:16:18.211Z,1.48
2023-04-16T00:21:20.863Z,1.51
2023-04-16T00:26:23.307Z,1.50
2023-04-16T00:31:33.768Z,1.54
2023-04-16T00:36:39.026Z,1.48
2023-04-16T00:41:45.813Z,1.49
2023-04-16T00:46:48.417Z,1.44
2023-04-16T00:51:51.276Z,1.42
2023-04-16T00:56:57.065Z,1.37
2023-04-16T01:01:59.699Z,1.37
2023-04-16T01:07:02.398Z,1.38
2023-04-16T01:12:06.089Z,1.29
2023-04-16T01:17:08.925Z,1.34
2023-04-16T01:22:11.480Z,1.26
2023-04-16T01:27:14.365Z,1.32
2023-04-16T01:32:16.883Z,1.25
2023-04-16T01:37:20.170Z,1.24
2023-04-16T01:42:23.608Z,1.20
2023-04-16T01:47:27.049Z,1.20
2023-04-16T01:52:29.692Z,1.21
2023-04-16T01:57:32.658Z,1.25
2023-04-16T02:02:36.539Z,1.26
2023-04-16T02:07:57.782Z,1.26
2023-04-16T02:13:00.410Z,1.27
2023-04-16T02:18:03.277Z,1.32
2023-04-16T02:23:06.741Z,1.31
2023-04-16T02:28:10.381Z,1.38
2023-04-16T02:33:15.910Z,1.43
2023-04-16T02:38:29.917Z,1.49
2023-04-16T02:43:33.129Z,1.53
2023-04-16T02:48:36.521Z,1.64
2023-04-16T02:53:39.510Z,1.68
2023-04-16T02:58:42.359Z,1.82
2023-04-16T03:03:44.974Z,1.93
2023-04-16T03:08:47.503Z,2.05
2023-04-16T03:13:51.003Z,2.16
2023-04-16T03:18:53.680Z,2.26
2023-04-16T03:23:56.395Z,2.40
2023-04-16T03:28:59.058Z,2.50
2023-04-16T03:34:03.810Z,2.58
2023-04-16T03:39:07.950Z,2.68
2023-04-16T03:44:12.202Z,2.70
2023-04-16T03:49:14.826Z,2.70
2023-04-16T03:54:17.855Z,2.71
2023-04-16T03:59:26.646Z,2.75
2023-04-16T04:04:29.335Z,2.72
2023-04-16T04:09:34.334Z,2.76
2023-04-16T04:14:40.310Z,2.81
2023-04-16T04:19:54.327Z,2.94
2023-04-16T04:25:09.171Z,3.02
2023-04-16T04:30:12.430Z,3.07
2023-04-16T04:35:16.631Z,3.14
2023-04-16T04:40:19.610Z,3.33
2023-04-16T04:45:25.802Z,3.50
2023-04-16T04:50:30.108Z,3.65
2023-04-16T04:55:33.383Z,3.83
2023-04-16T05:00:37.405Z,4.01
2023-04-16T05:05:41.640Z,4.17
2023-04-16T05:10:44.162Z,4.37
2023-04-16T05:15:46.979Z,4.50
2023-04-16T05:20:49.633Z,4.64
2023-04-16T05:25:52.215Z,4.72
2023-04-16T05:30:54.761Z,4.85
2023-04-16T05:35:57.339Z,5.01
2023-04-16T05:40:59.840Z,5.22
2023-04-16T05:46:02.388Z,5.39
2023-04-16T05:51:05.053Z,5.49
2023-04-16T05:56:08.251Z,5.70
2023-04-16T06:01:11.758Z,5.85
2023-04-16T06:06:17.009Z,6.08
2023-04-16T06:11:19.732Z,6.30
2023-04-16T06:16:22.465Z,6.46
2023-04-16T06:21:25.225Z,6.68
2023-04-16T06:26:27.863Z,6.76
2023-04-16T06:31:30.950Z,6.85
2023-04-16T06:36:33.456Z,7.03
2023-04-16T06:41:36.260Z,7.18
2023-04-16T06:46:38.857Z,7.30
2023-04-16T06:51:43.996Z,7.42
2023-04-16T06:56:46.678Z,7.54
2023-04-16T07:01:49.351Z,7.72
2023-04-16T07:06:51.969Z,7.77
2023-04-16T07:11:55.066Z,8.06
2023-04-16T07:16:57.789Z,8.08
2023-04-16T07:22:00.924Z,8.07
2023-04-16T07:27:03.535Z,8.29
2023-04-16T07:32:07.792Z,8.46
2023-04-16T07:37:10.773Z,8.67
2023-04-16T07:42:16.154Z,8.61
2023-04-16T07:47:18.724Z,8.71
2023-04-16T07:52:21.396Z,8.83
2023-04-16T07:57:24.003Z,8.88
2023-04-16T08:02:26.923Z,9.04
2023-04-16T08:07:31.891Z,9.22
2023-04-16T08:12:36.064Z,9.14
2023-04-16T08:17:39.126Z,9.19
2023-04-16T08:22:41.633Z,9.45
2023-04-16T08:27:44.185Z,9.59
2023-04-16T08:32:50.041Z,9.62
2023-04-16T08:37:54.023Z,9.70
2023-04-16T08:42:59.551Z,9.66
2023-04-16T08:48:05.345Z,9.83
2023-04-16T08:53:14.458Z,10.02
2023-04-16T08:58:22.573Z,10.27
2023-04-16T09:03:30.133Z,10.44
2023-04-16T09:08:33.079Z,10.45
2023-04-16T09:13:40.030Z,10.55
2023-04-16T09:18:42.751Z,10.70
2023-04-16T09:23:47.167Z,10.91
2023-04-16T09:28:51.636Z,11.02
2023-04-16T09:34:04.697Z,11.30
2023-04-16T09:39:07.462Z,11.42
2023-04-16T09:44:09.983Z,11.48
2023-04-16T09:49:17.056Z,11.61
2023-04-16T09:54:20.990Z,11.90
2023-04-16T09:59:24.672Z,11.96
2023-04-16T10:04:28.001Z,11.98
2023-04-16T10:09:38.563Z,12.01
2023-04-16T10:14:42.321Z,12.29
2023-04-16T10:19:45.964Z,12.13
2023-04-16T10:24:50.167Z,12.29
2023-04-16T10:30:12.117Z,12.27
2023-04-16T10:35:21.265Z,12.50
2023-04-16T10:40:26.052Z,12.21
2023-04-16T10:45:38.505Z,12.48
2023-04-16T10:51:00.412Z,12.57
2023-04-16T10:56:09.014Z,13.66
2023-04-16T11:01:13.897Z,14.97
2023-04-16T11:06:26.486Z,15.38
2023-04-16T11:11:39.518Z,16.51
2023-04-16T11:16:44.905Z,17.04
2023-04-16T11:21:47.685Z,17.95
2023-04-16T11:26:56.266Z,18.55
2023-04-16T11:31:58.869Z,18.69
2023-04-16T11:37:01.601Z,18.95
2023-04-16T11:42:04.254Z,19.02
2023-04-16T11:47:07.916Z,19.43
2023-04-16T11:52:12.151Z,19.64
2023-04-16T11:57:15.604Z,20.30
2023-04-16T12:02:18.065Z,20.45
2023-04-16T12:07:20.738Z,20.67
2023-04-16T12:12:28.367Z,21.73
2023-04-16T12:17:33.661Z,22.36
2023-04-16T12:22:38.046Z,22.38
2023-04-16T12:27:43.626Z,21.93
2023-04-16T12:32:48.610Z,22.08
2023-04-16T12:37:54.083Z,22.72
2023-04-16T12:42:56.850Z,22.59
2023-04-16T12:47:59.670Z,22.64
2023-04-16T12:53:02.680Z,23.17
2023-04-16T12:58:05.367Z,23.62
2023-04-16T13:03:08.336Z,23.65
2023-04-16T13:08:11.272Z,23.27
2023-04-16T13:13:13.863Z,22.45
2023-04-16T13:18:16.473Z,22.12
2023-04-16T13:23:18.997Z,22.06
2023-04-16T13:28:21.759Z,22.25
2023-04-16T13:33:24.367Z,22.34
2023-04-16T13:38:26.988Z,22.70
2023-04-16T13:43:29.601Z,23.13
2023-04-16T13:48:33.024Z,22.46
2023-04-16T13:53:35.637Z,22.79
2023-04-16T13:58:38.642Z,22.32
2023-04-16T14:03:45.332Z,21.65
2023-04-16T14:08:49.961Z,22.01
2023-04-16T14:13:52.532Z,22.61
2023-04-16T14:18:54.981Z,22.48
2023-04-16T14:23:57.473Z,22.08
2023-04-16T14:28:59.894Z,22.02
2023-04-16T14:34:02.857Z,21.98
2023-04-16T14:39:05.344Z,20.93
2023-04-16T14:44:08.536Z,20.56
2023-04-16T14:49:12.399Z,20.43
2023-04-16T14:54:15.596Z,19.55
2023-04-16T14:59:18.110Z,19.43
2023-04-16T15:04:20.982Z,18.93
2023-04-16T15:09:24.605Z,18.62
2023-04-16T15:14:27.396Z,17.39
2023-04-16T15:19:30.051Z,17.50
2023-04-16T15:24:32.472Z,17.31
2023-04-16T15:29:38.163Z,15.80
2023-04-16T15:34:41.803Z,14.10
2023-04-16T15:39:44.892Z,12.97
2023-04-16T15:44:47.563Z,12.28
2023-04-16T15:49:52.004Z,11.74
2023-04-16T15:54:56.562Z,11.33
2023-04-16T16:00:07.044Z,10.93
2023-04-16T16:05:11.588Z,10.56
2023-04-16T16:10:14.619Z,10.33
2023-04-16T16:15:17.347Z,9.96
2023-04-16T16:20:20.053Z,9.72
2023-04-16T16:25:23.633Z,9.51
2023-04-16T16:30:26.724Z,9.26
2023-04-16T16:35:29.309Z,9.21
2023-04-16T16:40:32.016Z,9.12
2023-04-16T16:45:36.453Z,8.96
2023-04-16T16:50:39.042Z,8.89
2023-04-16T16:55:41.702Z,8.68
2023-04-16T17:00:44.375Z,8.47
2023-04-16T17:05:46.960Z,8.40
2023-04-16T17:10:49.905Z,8.26
2023-04-16T17:15:52.458Z,8.22
2023-04-16T17:20:57.820Z,8.16
2023-04-16T17:26:00.560Z,7.95
2023-04-16T17:31:03.934Z,7.84
2023-04-16T17:36:07.685Z,7.75
2023-04-16T17:41:10.226Z,7.62
2023-04-16T17:46:31.519Z,7.47
2023-04-16T17:51:34.401Z,7.29
2023-04-16T17:56:37.729Z,7.25
2023-04-16T18:01:41.102Z,7.22
2023-04-16T18:06:43.716Z,7.11
2023-04-16T18:11:46.469Z,7.12
2023-04-16T18:16:49.699Z,7.05
2023-04-16T18:21:52.272Z,6.95
2023-04-16T18:26:55.276Z,6.90
2023-04-16T18:32:04.811Z,6.83
2023-04-16T18:37:07.776Z,6.74
2023-04-16T18:42:10.286Z,6.68
2023-04-16T18:47:12.844Z,6.64
2023-04-16T18:52:15.709Z,6.60
2023-04-16T18:57:18.367Z,6.58
2023-04-16T19:02:22.073Z,6.52
2023-04-16T19:07:24.671Z,6.49
2023-04-16T19:12:27.233Z,6.47
2023-04-16T19:17:29.754Z,6.43
2023-04-16T19:22:32.324Z,6.39
2023-04-16T19:27:37.934Z,6.39
2023-04-16T19:32:40.809Z,6.38
2023-04-16T19:37:43.873Z,6.38
2023-04-16T19:42:46.645Z,6.31
2023-04-16T19:47:51.436Z,6.23
2023-04-16T19:52:53.870Z,6.13
2023-04-16T19:57:58.052Z,6.06
2023-04-16T20:03:00.876Z,6.01
2023-04-16T20:08:03.470Z,5.99
2023-04-16T20:13:10.212Z,5.93
2023-04-16T20:18:13.810Z,5.90
2023-04-16T20:23:16.653Z,5.83
2023-04-16T20:28:21.683Z,5.83
2023-04-16T20:33:24.309Z,5.76
2023-04-16T20:38:29.859Z,5.76
2023-04-16T20:43:38.833Z,5.75
2023-04-16T20:48:41.482Z,5.72
2023-04-16T20:53:44.145Z,5.69
2023-04-16T20:58:47.811Z,5.73
2023-04-16T21:03:53.705Z,5.70
2023-04-16T21:08:56.518Z,5.72
2023-04-16T21:14:07.865Z,5.66
2023-04-16T21:19:10.919Z,5.57
2023-04-16T21:29:33.735Z,5.47
2023-04-16T21:34:36.360Z,5.44
2023-04-16T21:39:38.856Z,5.38
2023-04-16T21:44:41.395Z,5.34
2023-04-16T21:49:43.906Z,5.27
2023-04-16T21:54:47.806Z,5.24
2023-04-16T21:59:50.350Z,5.20
2023-04-16T22:04:55.979Z,5.15
2023-04-16T22:09:58.496Z,5.11
2023-04-16T22:15:03.049Z,5.07
2023-04-16T22:20:09.593Z,5.07
2023-04-16T22:25:12.341Z,5.03
2023-04-16T22:30:14.929Z,5.00
2023-04-16T22:35:18.466Z,4.97
2023-04-16T22:40:21.245Z,4.94
2023-04-16T22:45:23.812Z,4.95
2023-04-16T22:50:26.508Z,4.96
2023-04-16T22:55:30.163Z,4.90
2023-04-16T23:00:35.667Z,4.84
2023-04-16T23:05:38.169Z,4.76
2023-04-16T23:10:40.682Z,4.63
2023-04-16T23:15:44.003Z,4.57
2023-04-16T23:20:46.755Z,4.46
2023-04-16T23:25:52.090Z,4.36
2023-04-16T23:30:54.615Z,4.27
2023-04-16T23:35:57.137Z,4.21
2023-04-16T23:41:00.459Z,4.13
2023-04-16T23:46:05.526Z,4.07
2023-04-16T23:51:08.084Z,4.01
2023-04-16T23:56:13.729Z,3.95
